Time;durP1;ratioP1;P1;durP2;ratioP2;P2;SDS_P1;SDS_P2;PMS_P1;PMS_P2;Temp;Humidity;BMP_temperature;BMP_pressure;BME280_temperature;BME280_humidity;BME280_pressure;Samples;Min_cycle;Max_cycle;Signal;HPM_P1;HPM_P2
2024/02/15 00:01:47;;;;;;;64.00;18.90;;;;;;;;;;137113;1272;22402;-82
2024/02/15 00:04:48;;;;;;;57.80;20.10;;;;;;;;;;137277;1272;22563;-81
2024/02/15 00:07:49;;;;;;;41.80;17.90;;;;;;;;;;137720;1272;22420;-80
2024/02/15 00:10:50;;;;;;;32.50;17.70;;;;;;;;;;137219;1272;22204;-81
2024/02/15 00:13:52;;;;;;;199.60;27.30;;;;;;;;;;137335;1271;22254;-79
2024/02/15 00:16:53;;;;;;;387.20;36.30;;;;;;;;;;137495;1272;22775;-82
2024/02/15 00:19:54;;;;;;;121.00;24.30;;;;;;;;;;137252;1272;25400;-82
2024/02/15 00:22:56;;;;;;;98.50;21.40;;;;;;;;;;137780;1272;22160;-83
2024/02/15 00:25:57;;;;;;;44.90;19.10;;;;;;;;;;137757;1271;22153;-83
2024/02/15 00:28:58;;;;;;;176.00;26.80;;;;;;;;;;137759;1272;22140;-83
2024/02/15 00:31:59;;;;;;;67.90;18.50;;;;;;;;;;137740;1271;22051;-83
2024/02/15 00:35:01;;;;;;;51.20;19.00;;;;;;;;;;137773;1271;22546;-81
2024/02/15 00:38:02;;;;;;;35.90;18.20;;;;;;;;;;137777;1260;22366;-83
2024/02/15 00:41:03;;;;;;;32.70;18.10;;;;;;;;;;137763;1268;22168;-83
2024/02/15 00:44:04;;;;;;;35.60;17.90;;;;;;;;;;137707;1272;22432;-81
2024/02/15 00:47:06;;;;;;;30.20;18.60;;;;;;;;;;137716;1272;22276;-82
2024/02/15 00:50:07;;;;;;;31.60;18.40;;;;;;;;;;137354;1272;262865;-81
2024/02/15 00:53:08;;;;;;;30.80;17.50;;;;;;;;;;136756;1284;22130;-79
2024/02/15 00:56:09;;;;;;;28.50;18.40;;;;;;;;;;136458;1290;22127;-83
2024/02/15 00:59:11;;;;;;;33.00;20.20;;;;;;;;;;136393;1276;22087;-83
2024/02/15 01:02:12;;;;;;;32.80;19.90;;;;;;;;;;136444;1290;22066;-80
2024/02/15 01:05:15;;;;;;;28.50;18.20;;;;;;;;;;136422;1290;22229;-81
2024/02/15 01:08:16;;;;;;;31.40;21.40;;;;;;;;;;136413;1290;22068;-82
2024/02/15 01:11:17;;;;;;;35.50;19.40;;;;;;;;;;136444;1290;22119;-83
2024/02/15 01:14:18;;;;;;;30.80;18.40;;;;;;;;;;136438;1290;22264;-83
2024/02/15 01:17:22;;;;;;;30.10;18.60;;;;;;;;;;136470;1290;22063;-83
2024/02/15 01:20:23;;;;;;;30.10;20.70;;;;;;;;;;136448;1290;22112;-83
2024/02/15 01:23:25;;;;;;;34.20;21.00;;;;;;;;;;136461;1290;22092;-83
2024/02/15 01:26:26;;;;;;;32.60;20.50;;;;;;;;;;136469;1290;22193;-83
2024/02/15 01:29:28;;;;;;;32.70;21.00;;;;;;;;;;136428;1290;22069;-83
2024/02/15 01:32:29;;;;;;;29.50;19.30;;;;;;;;;;136449;1290;22091;-83
2024/02/15 01:35:30;;;;;;;32.30;19.80;;;;;;;;;;136444;1290;22199;-83
2024/02/15 01:38:31;;;;;;;31.50;21.10;;;;;;;;;;136366;1290;22202;-83
2024/02/15 01:41:32;;;;;;;31.40;20.60;;;;;;;;;;136420;1290;22185;-83
2024/02/15 01:44:34;;;;;;;34.80;21.90;;;;;;;;;;136436;1286;22081;-82
2024/02/15 01:47:37;;;;;;;36.40;21.80;;;;;;;;;;136434;1290;22581;-83
2024/02/15 01:50:38;;;;;;;35.10;21.00;;;;;;;;;;136417;1290;22129;-82
2024/02/15 01:53:40;;;;;;;610.80;49.80;;;;;;;;;;136405;1290;22166;-82
2024/02/15 01:56:41;;;;;;;93.40;26.10;;;;;;;;;;136420;1290;22178;-82
2024/02/15 01:59:42;;;;;;;46.90;23.90;;;;;;;;;;136403;1290;23047;-82
2024/02/15 02:02:43;;;;;;;38.80;23.80;;;;;;;;;;136421;1290;22074;-81
2024/02/15 02:05:47;;;;;;;45.00;24.00;;;;;;;;;;136448;1290;22196;-82
2024/02/15 02:08:49;;;;;;;39.20;24.30;;;;;;;;;;136403;1290;22214;-82
2024/02/15 02:11:54;;;;;;;77.10;25.60;;;;;;;;;;136404;1290;22070;-83
2024/02/15 02:14:56;;;;;;;41.40;23.80;;;;;;;;;;136431;1290;22085;-82
2024/02/15 02:17:58;;;;;;;45.20;24.70;;;;;;;;;;136446;1290;22126;-81
2024/02/15 02:21:00;;;;;;;56.20;23.90;;;;;;;;;;136413;1290;22509;-82
2024/02/15 02:24:01;;;;;;;42.10;24.80;;;;;;;;;;136436;1290;22630;-82
2024/02/15 02:27:02;;;;;;;42.40;23.80;;;;;;;;;;136442;1290;22616;-82
2024/02/15 02:30:06;;;;;;;42.40;23.60;;;;;;;;;;136446;1290;22092;-83
2024/02/15 02:33:08;;;;;;;39.60;22.70;;;;;;;;;;136433;1290;22042;-84
2024/02/15 02:36:11;;;;;;;64.60;24.20;;;;;;;;;;136407;1290;22088;-82
2024/02/15 02:39:13;;;;;;;57.20;24.50;;;;;;;;;;136402;1290;22053;-82
2024/02/15 02:42:14;;;;;;;65.80;24.90;;;;;;;;;;136455;1290;22037;-82
2024/02/15 02:45:15;;;;;;;45.80;25.30;;;;;;;;;;136435;1290;22117;-82
2024/02/15 02:48:18;;;;;;;48.50;26.80;;;;;;;;;;136431;1290;22061;-82
2024/02/15 02:51:19;;;;;;;57.90;26.90;;;;;;;;;;136425;1290;22516;-82
2024/02/15 02:54:20;;;;;;;72.90;27.10;;;;;;;;;;136409;1290;22071;-82
2024/02/15 02:57:22;;;;;;;56.80;27.60;;;;;;;;;;136431;1290;22068;-82
2024/02/15 03:00:23;;;;;;;52.40;26.70;;;;;;;;;;136453;1290;22163;-82
2024/02/15 03:03:24;;;;;;;54.00;27.50;;;;;;;;;;136448;1290;22123;-82
2024/02/15 03:06:25;;;;;;;42.90;26.20;;;;;;;;;;136440;1290;22190;-82
2024/02/15 03:09:29;;;;;;;105.60;28.90;;;;;;;;;;136422;1290;22248;-82
2024/02/15 03:12:30;;;;;;;59.40;30.20;;;;;;;;;;136403;1290;22154;-82
2024/02/15 03:15:32;;;;;;;56.40;28.10;;;;;;;;;;136402;1290;22664;-83
2024/02/15 03:18:34;;;;;;;58.20;27.30;;;;;;;;;;136404;1290;22680;-82
2024/02/15 03:21:35;;;;;;;130.90;28.70;;;;;;;;;;136430;1290;22158;-83
2024/02/15 03:24:36;;;;;;;64.30;26.10;;;;;;;;;;136422;1290;22183;-81
2024/02/15 03:27:38;;;;;;;44.90;25.60;;;;;;;;;;136410;1290;23048;-82
2024/02/15 03:30:39;;;;;;;45.80;24.90;;;;;;;;;;136413;1290;22130;-81
2024/02/15 03:33:40;;;;;;;44.30;24.60;;;;;;;;;;136468;1290;22580;-80
2024/02/15 03:36:41;;;;;;;46.20;23.50;;;;;;;;;;136464;1290;22377;-81
2024/02/15 03:39:43;;;;;;;41.80;23.50;;;;;;;;;;136456;1290;22132;-81
2024/02/15 03:42:44;;;;;;;42.10;23.30;;;;;;;;;;136470;1290;22643;-81
2024/02/15 03:45:45;;;;;;;49.60;24.90;;;;;;;;;;136446;1290;22163;-81
2024/02/15 03:48:46;;;;;;;66.70;25.80;;;;;;;;;;136450;1290;22452;-82
2024/02/15 03:51:47;;;;;;;44.90;25.00;;;;;;;;;;136442;1289;22096;-82
2024/02/15 03:54:49;;;;;;;45.50;26.20;;;;;;;;;;136443;1290;22144;-81
2024/02/15 03:57:55;;;;;;;45.90;28.10;;;;;;;;;;136456;1290;22131;-81
2024/02/15 04:00:56;;;;;;;62.80;25.70;;;;;;;;;;136444;1290;22087;-81
2024/02/15 04:03:58;;;;;;;46.40;24.60;;;;;;;;;;136454;1290;22023;-81
2024/02/15 04:06:59;;;;;;;339.90;38.10;;;;;;;;;;136442;1290;22657;-81
2024/02/15 04:10:00;;;;;;;44.30;24.30;;;;;;;;;;136382;1290;22354;-82
2024/02/15 04:13:02;;;;;;;40.90;24.20;;;;;;;;;;136416;1289;22144;-82
2024/02/15 04:16:04;;;;;;;45.20;24.50;;;;;;;;;;136435;1290;22071;-81
2024/02/15 04:19:05;;;;;;;54.20;25.70;;;;;;;;;;136450;1290;22110;-81
2024/02/15 04:22:07;;;;;;;43.60;23.80;;;;;;;;;;136430;1290;22629;-80
2024/02/15 04:25:09;;;;;;;146.50;28.20;;;;;;;;;;136450;1290;22064;-81
2024/02/15 04:28:10;;;;;;;168.80;30.20;;;;;;;;;;136415;1290;22068;-82
2024/02/15 04:31:12;;;;;;;42.60;24.00;;;;;;;;;;136429;1290;22696;-82
2024/02/15 04:34:13;;;;;;;62.00;25.00;;;;;;;;;;136413;1290;22070;-82
2024/02/15 04:37:16;;;;;;;105.50;28.90;;;;;;;;;;136411;1290;22114;-81
2024/02/15 04:40:18;;;;;;;51.10;24.10;;;;;;;;;;136372;1290;22618;-80
2024/02/15 04:43:19;;;;;;;66.20;25.80;;;;;;;;;;136347;1290;22620;-82
2024/02/15 04:46:21;;;;;;;111.00;28.70;;;;;;;;;;136338;1290;22185;-82
2024/02/15 04:49:23;;;;;;;125.10;27.50;;;;;;;;;;136352;1290;22137;-81
2024/02/15 04:52:24;;;;;;;54.80;25.00;;;;;;;;;;136364;1290;22374;-80
2024/02/15 04:55:26;;;;;;;145.10;30.80;;;;;;;;;;136314;1290;22651;-81
2024/02/15 04:58:28;;;;;;;49.70;26.80;;;;;;;;;;136327;1290;22211;-81
2024/02/15 05:01:31;;;;;;;61.30;26.90;;;;;;;;;;136325;1290;22163;-81
2024/02/15 05:04:36;;;;;;;45.70;26.40;;;;;;;;;;136361;1290;22130;-81
2024/02/15 05:07:39;;;;;;;57.20;28.20;;;;;;;;;;136363;1290;22145;-80
2024/02/15 05:10:40;;;;;;;990.60;83.80;;;;;;;;;;136375;1290;22136;-81
2024/02/15 05:13:41;;;;;;;60.70;28.20;;;;;;;;;;136335;1290;22437;-80
2024/02/15 05:16:43;;;;;;;49.70;27.60;;;;;;;;;;136367;1290;22136;-82
2024/02/15 05:19:45;;;;;;;51.90;27.60;;;;;;;;;;136335;1290;22135;-81
2024/02/15 05:22:46;;;;;;;160.90;32.00;;;;;;;;;;136333;1290;22147;-81
2024/02/15 05:25:47;;;;;;;105.80;30.90;;;;;;;;;;136315;1290;22131;-81
2024/02/15 05:28:48;;;;;;;66.10;28.50;;;;;;;;;;136302;1290;22174;-81
2024/02/15 05:31:51;;;;;;;59.10;29.10;;;;;;;;;;136319;1290;22234;-81
2024/02/15 05:34:54;;;;;;;56.90;27.20;;;;;;;;;;136303;1290;22125;-81
2024/02/15 05:37:56;;;;;;;172.10;32.60;;;;;;;;;;136331;1290;22165;-79
2024/02/15 05:40:57;;;;;;;50.90;27.20;;;;;;;;;;136289;1283;22165;-81
2024/02/15 05:44:01;;;;;;;79.40;29.00;;;;;;;;;;136383;1286;22141;-81
2024/02/15 05:47:03;;;;;;;64.30;27.70;;;;;;;;;;136359;1290;22140;-80
2024/02/15 05:50:04;;;;;;;51.40;27.70;;;;;;;;;;136334;1286;22195;-83
2024/02/15 05:53:07;;;;;;;127.50;31.00;;;;;;;;;;136374;1290;22150;-81
2024/02/15 05:56:08;;;;;;;54.60;27.50;;;;;;;;;;136363;1290;22175;-81
2024/02/15 05:59:10;;;;;;;158.20;31.70;;;;;;;;;;136340;1290;22120;-81
2024/02/15 06:02:11;;;;;;;151.80;32.30;;;;;;;;;;136334;1290;22170;-81
2024/02/15 06:05:16;;;;;;;101.40;30.50;;;;;;;;;;136309;1289;22187;-82
2024/02/15 06:08:20;;;;;;;80.20;30.70;;;;;;;;;;136358;1290;22572;-81
2024/02/15 06:11:21;;;;;;;63.80;28.50;;;;;;;;;;136416;1290;22141;-84
2024/02/15 06:14:22;;;;;;;186.30;32.20;;;;;;;;;;136385;1290;22604;-81
2024/02/15 06:17:24;;;;;;;455.30;44.60;;;;;;;;;;136391;1290;22135;-82
2024/02/15 06:20:28;;;;;;;59.00;28.80;;;;;;;;;;136470;1290;22723;-81
2024/02/15 06:23:29;;;;;;;53.60;28.90;;;;;;;;;;136428;1290;22150;-82
2024/02/15 06:26:32;;;;;;;47.30;27.50;;;;;;;;;;136387;1290;22102;-82
2024/02/15 06:39:44;;;;;;;136.90;30.30;;;;;;;;;;136354;1290;22164;-83
2024/02/15 06:42:46;;;;;;;89.70;29.70;;;;;;;;;;136320;1290;22217;-84
2024/02/15 06:45:47;;;;;;;66.10;28.10;;;;;;;;;;136373;1290;22639;-83
2024/02/15 06:48:48;;;;;;;54.00;30.30;;;;;;;;;;136316;1290;22134;-81
2024/02/15 06:51:50;;;;;;;68.50;30.20;;;;;;;;;;136345;1290;22344;-83
2024/02/15 06:54:52;;;;;;;51.30;30.40;;;;;;;;;;136335;1290;22100;-79
2024/02/15 06:57:55;;;;;;;51.80;30.30;;;;;;;;;;136344;1290;22143;-83
2024/02/15 07:00:56;;;;;;;67.40;31.70;;;;;;;;;;136372;1286;22132;-81
2024/02/15 07:03:57;;;;;;;145.30;35.40;;;;;;;;;;136331;1290;22153;-83
2024/02/15 07:06:59;;;;;;;67.00;32.00;;;;;;;;;;136344;1290;22192;-83
2024/02/15 07:10:02;;;;;;;114.10;33.70;;;;;;;;;;136351;1283;22170;-82
2024/02/15 07:13:04;;;;;;;61.20;31.00;;;;;;;;;;136343;1290;22165;-83
2024/02/15 07:16:05;;;;;;;62.40;31.70;;;;;;;;;;136414;1290;22577;-82
2024/02/15 07:19:07;;;;;;;142.40;35.00;;;;;;;;;;136376;1290;22130;-82
2024/02/15 07:22:09;;;;;;;59.50;31.70;;;;;;;;;;136374;1290;22478;-83
2024/02/15 07:25:12;;;;;;;54.00;31.40;;;;;;;;;;136378;1290;22278;-81
2024/02/15 07:28:15;;;;;;;63.20;31.00;;;;;;;;;;136364;1290;22626;-83
2024/02/15 07:31:16;;;;;;;122.40;33.60;;;;;;;;;;136302;1290;23111;-83
2024/02/15 07:34:17;;;;;;;62.60;33.00;;;;;;;;;;136312;1290;22190;-82
2024/02/15 07:37:18;;;;;;;51.20;33.30;;;;;;;;;;136336;1290;22147;-82
2024/02/15 07:40:22;;;;;;;57.80;33.50;;;;;;;;;;136353;1290;22184;-80
2024/02/15 07:43:23;;;;;;;78.40;34.90;;;;;;;;;;136357;1290;22511;-81
2024/02/15 07:46:24;;;;;;;55.10;31.80;;;;;;;;;;136376;1290;22584;-83
2024/02/15 07:49:26;;;;;;;100.50;33.20;;;;;;;;;;136316;1290;22594;-82
2024/02/15 07:52:29;;;;;;;59.70;33.00;;;;;;;;;;136362;1290;22168;-82
2024/02/15 07:55:30;;;;;;;57.00;33.60;;;;;;;;;;136322;1290;22117;-82
2024/02/15 07:58:31;;;;;;;55.00;33.20;;;;;;;;;;136322;1290;22495;-82
2024/02/15 08:01:32;;;;;;;54.80;32.50;;;;;;;;;;136361;1290;22149;-82
2024/02/15 08:04:39;;;;;;;90.10;35.10;;;;;;;;;;136325;1290;22199;-81
2024/02/15 08:07:41;;;;;;;58.20;32.90;;;;;;;;;;136321;1290;22766;-81
2024/02/15 08:10:43;;;;;;;61.70;35.10;;;;;;;;;;136312;1290;22160;-82
2024/02/15 08:13:45;;;;;;;55.50;32.90;;;;;;;;;;136363;1290;22136;-81
2024/02/15 08:16:46;;;;;;;72.40;33.40;;;;;;;;;;136316;1290;22243;-82
2024/02/15 08:19:48;;;;;;;52.40;33.10;;;;;;;;;;136334;1290;22234;-82
2024/02/15 08:22:49;;;;;;;92.20;35.20;;;;;;;;;;136373;1290;22536;-82
2024/02/15 08:25:52;;;;;;;58.50;33.30;;;;;;;;;;136389;1290;22556;-80
2024/02/15 08:28:55;;;;;;;145.30;37.00;;;;;;;;;;136349;1289;22190;-81
2024/02/15 08:31:56;;;;;;;200.50;38.90;;;;;;;;;;136351;1283;22184;-82
2024/02/15 08:34:59;;;;;;;61.40;35.30;;;;;;;;;;136383;1290;22180;-83
2024/02/15 08:38:05;;;;;;;290.30;48.00;;;;;;;;;;136391;1290;22162;-82
2024/02/15 08:41:07;;;;;;;388.80;46.30;;;;;;;;;;136411;1290;22172;-81
2024/02/15 08:44:11;;;;;;;98.10;34.40;;;;;;;;;;136145;1290;22166;-82
2024/02/15 08:47:15;;;;;;;72.60;33.20;;;;;;;;;;136427;1290;22617;-82
2024/02/15 08:50:18;;;;;;;163.00;38.40;;;;;;;;;;136380;1290;22080;-81
2024/02/15 08:53:19;;;;;;;61.10;33.00;;;;;;;;;;136404;1290;22151;-82
2024/02/15 08:56:20;;;;;;;69.90;34.00;;;;;;;;;;136394;1290;22337;-82
2024/02/15 08:59:21;;;;;;;58.60;33.50;;;;;;;;;;136463;1290;22180;-82
2024/02/15 09:02:23;;;;;;;122.10;34.00;;;;;;;;;;136452;1290;22190;-82
2024/02/15 09:05:24;;;;;;;121.40;34.60;;;;;;;;;;136459;1290;22124;-82
2024/02/15 09:08:26;;;;;;;48.30;32.30;;;;;;;;;;136509;1290;22079;-81
2024/02/15 09:11:27;;;;;;;374.20;43.40;;;;;;;;;;136463;1290;22201;-81
2024/02/15 09:14:28;;;;;;;62.10;32.50;;;;;;;;;;136416;1290;22196;-80
2024/02/15 09:17:32;;;;;;;49.50;31.80;;;;;;;;;;136420;1290;22613;-81
2024/02/15 09:20:33;;;;;;;53.80;32.40;;;;;;;;;;136336;1290;22118;-81
2024/02/15 09:23:34;;;;;;;48.50;31.20;;;;;;;;;;136330;1290;22131;-82
2024/02/15 09:26:36;;;;;;;52.80;31.10;;;;;;;;;;136259;1290;22128;-82
2024/02/15 09:29:40;;;;;;;52.00;30.80;;;;;;;;;;136287;1290;22142;-82
2024/02/15 09:32:41;;;;;;;57.80;32.00;;;;;;;;;;136314;1290;22514;-83
2024/02/15 09:35:46;;;;;;;86.60;31.50;;;;;;;;;;136319;1290;22220;-81
2024/02/15 09:38:50;;;;;;;47.70;31.10;;;;;;;;;;136319;1290;22119;-82
2024/02/15 09:41:58;;;;;;;561.10;58.00;;;;;;;;;;136317;1279;22075;-82
2024/02/15 09:45:02;;;;;;;244.00;39.70;;;;;;;;;;136325;1290;22177;-82
2024/02/15 09:48:04;;;;;;;68.30;30.60;;;;;;;;;;136363;1286;22258;-81
2024/02/15 09:51:05;;;;;;;81.10;30.40;;;;;;;;;;136330;1290;22107;-81
2024/02/15 09:54:08;;;;;;;56.60;28.00;;;;;;;;;;136327;1290;22117;-81
2024/02/15 09:57:12;;;;;;;64.20;28.00;;;;;;;;;;136326;1290;22092;-81
2024/02/15 10:00:26;;;;;;;;;;;;;;;;;;;;;
2024/02/15 10:03:28;;;;;;;738.10;69.90;;;;;;;;;;136035;1283;22522;-81
2024/02/15 10:06:30;;;;;;;229.80;35.70;;;;;;;;;;136315;1279;22120;-81
2024/02/15 10:09:31;;;;;;;56.30;29.10;;;;;;;;;;136356;1290;22111;-82
2024/02/15 10:12:32;;;;;;;300.00;37.90;;;;;;;;;;136244;1290;22083;-83
2024/02/15 10:15:34;;;;;;;51.60;25.00;;;;;;;;;;136331;1290;22578;-81
2024/02/15 10:18:35;;;;;;;37.50;23.40;;;;;;;;;;136355;1290;22142;-81
2024/02/15 10:21:38;;;;;;;129.80;26.30;;;;;;;;;;136339;1290;22161;-81
2024/02/15 10:24:42;;;;;;;45.10;24.50;;;;;;;;;;136303;1290;22201;-82
2024/02/15 10:27:45;;;;;;;117.50;26.10;;;;;;;;;;136344;1290;22221;-82
2024/02/15 10:30:48;;;;;;;112.00;24.70;;;;;;;;;;136329;1290;22142;-81
2024/02/15 10:33:49;;;;;;;32.00;18.90;;;;;;;;;;136349;1290;22152;-81
2024/02/15 10:36:51;;;;;;;39.60;20.40;;;;;;;;;;136342;1290;22294;-82
2024/02/15 10:39:53;;;;;;;93.90;21.90;;;;;;;;;;136334;1290;22088;-81
2024/02/15 10:42:58;;;;;;;65.20;19.70;;;;;;;;;;136338;1290;22890;-82
2024/02/15 10:45:59;;;;;;;42.90;16.90;;;;;;;;;;136357;1290;22128;-81
2024/02/15 10:49:00;;;;;;;50.10;19.30;;;;;;;;;;136361;1290;22128;-82
2024/02/15 10:52:04;;;;;;;26.90;16.90;;;;;;;;;;136350;1277;22207;-81
2024/02/15 10:55:05;;;;;;;31.00;15.00;;;;;;;;;;136371;1290;22745;-81
2024/02/15 10:58:06;;;;;;;28.40;14.90;;;;;;;;;;136372;1290;22187;-81
2024/02/15 11:01:08;;;;;;;27.80;13.20;;;;;;;;;;136328;1290;22216;-81
2024/02/15 11:04:10;;;;;;;15.90;11.00;;;;;;;;;;136323;1290;22589;-82
2024/02/15 11:07:13;;;;;;;15.30;11.20;;;;;;;;;;136261;1290;22115;-82
2024/02/15 11:10:17;;;;;;;14.60;9.50;;;;;;;;;;136335;1270;22075;-81
2024/02/15 11:13:18;;;;;;;14.50;9.70;;;;;;;;;;136322;1290;23011;-81
2024/02/15 11:16:20;;;;;;;49.70;15.60;;;;;;;;;;136279;1290;22551;-81
2024/02/15 11:19:22;;;;;;;17.30;11.00;;;;;;;;;;136357;1290;22744;-81
2024/02/15 11:22:23;;;;;;;26.00;11.70;;;;;;;;;;136312;1290;22686;-82
2024/02/15 11:25:24;;;;;;;35.10;12.30;;;;;;;;;;136340;1290;22243;-82
2024/02/15 11:28:27;;;;;;;23.70;12.00;;;;;;;;;;136083;1290;22139;-80
2024/02/15 11:31:28;;;;;;;34.30;12.20;;;;;;;;;;136309;1290;22190;-81
2024/02/15 11:34:29;;;;;;;23.20;12.90;;;;;;;;;;136339;1290;22128;-80
2024/02/15 11:37:30;;;;;;;27.50;12.70;;;;;;;;;;136278;1290;22581;-81
2024/02/15 11:40:31;;;;;;;34.20;13.40;;;;;;;;;;136340;1290;22174;-81
2024/02/15 11:43:33;;;;;;;46.90;13.90;;;;;;;;;;136339;1290;22592;-81
2024/02/15 11:46:35;;;;;;;26.10;12.50;;;;;;;;;;136347;1290;22812;-81
2024/02/15 11:49:39;;;;;;;38.60;12.20;;;;;;;;;;136338;1290;22186;-81
2024/02/15 11:52:40;;;;;;;201.80;21.90;;;;;;;;;;136396;1290;22194;-81
2024/02/15 11:55:42;;;;;;;142.10;18.90;;;;;;;;;;136434;1290;22144;-80
2024/02/15 11:58:52;;;;;;;407.80;32.80;;;;;;;;;;136462;1290;22441;-80
2024/02/15 12:18:42;;;;;;;67.10;10.60;;;;;;;;;;136321;1290;22178;-80
2024/02/15 12:21:43;;;;;;;15.30;8.10;;;;;;;;;;136294;1290;22119;-80
2024/02/15 12:24:44;;;;;;;33.20;8.10;;;;;;;;;;136284;1290;22105;-81
2024/02/15 12:27:46;;;;;;;25.90;9.00;;;;;;;;;;136272;1290;22197;-80
2024/02/15 12:30:48;;;;;;;356.70;21.20;;;;;;;;;;136273;1290;22139;-80
2024/02/15 12:33:49;;;;;;;15.10;6.70;;;;;;;;;;136325;1286;22134;-80
2024/02/15 12:36:52;;;;;;;13.80;5.80;;;;;;;;;;136348;1290;22182;-80
2024/02/15 12:39:53;;;;;;;15.10;5.60;;;;;;;;;;136335;1290;22160;-79
2024/02/15 12:42:54;;;;;;;10.20;5.00;;;;;;;;;;136272;1290;22125;-79
2024/02/15 12:45:56;;;;;;;109.10;8.40;;;;;;;;;;136264;1290;22120;-81
2024/02/15 12:48:58;;;;;;;14.10;5.40;;;;;;;;;;135877;1290;543109;-81
2024/02/15 12:51:59;;;;;;;32.20;6.80;;;;;;;;;;136315;1290;22140;-82
2024/02/15 12:55:00;;;;;;;30.00;7.40;;;;;;;;;;136297;1290;22575;-81
2024/02/15 12:58:03;;;;;;;10.60;6.20;;;;;;;;;;136321;1290;22145;-80
2024/02/15 13:01:05;;;;;;;60.60;8.70;;;;;;;;;;136279;1285;22129;-82
2024/02/15 13:04:08;;;;;;;19.00;6.80;;;;;;;;;;136247;1290;22741;-83
2024/02/15 13:07:09;;;;;;;15.20;5.20;;;;;;;;;;136218;1290;22500;-82
2024/02/15 13:10:14;;;;;;;36.10;5.80;;;;;;;;;;136230;1288;22571;-82
2024/02/15 13:13:16;;;;;;;27.40;5.80;;;;;;;;;;136281;1290;22145;-81
2024/02/15 13:16:17;;;;;;;84.80;7.90;;;;;;;;;;136268;1290;22134;-83
2024/02/15 13:19:20;;;;;;;19.60;6.00;;;;;;;;;;136256;1290;22554;-82
2024/02/15 13:22:22;;;;;;;147.40;10.70;;;;;;;;;;136255;1279;22164;-83
2024/02/15 13:25:26;;;;;;;21.80;4.90;;;;;;;;;;136226;1290;22184;-82
2024/02/15 13:28:28;;;;;;;41.40;5.20;;;;;;;;;;136252;1290;22134;-83
2024/02/15 13:31:31;;;;;;;5.80;4.00;;;;;;;;;;136238;1286;22121;-82
2024/02/15 13:34:32;;;;;;;35.00;6.00;;;;;;;;;;136292;1286;22904;-83
2024/02/15 13:37:34;;;;;;;83.20;8.40;;;;;;;;;;136264;1290;22599;-82
2024/02/15 13:40:36;;;;;;;76.40;7.30;;;;;;;;;;136290;1290;22955;-83
2024/02/15 13:43:39;;;;;;;14.30;9.70;;;;;;;;;;136289;1286;22147;-82
2024/02/15 13:46:40;;;;;;;20.80;14.10;;;;;;;;;;136283;1283;22227;-82
2024/02/15 13:49:41;;;;;;;23.00;15.20;;;;;;;;;;136274;1290;22148;-81
2024/02/15 13:52:44;;;;;;;28.00;17.80;;;;;;;;;;136265;1290;22593;-81
2024/02/15 13:55:45;;;;;;;27.70;19.10;;;;;;;;;;136244;1290;22149;-82
2024/02/15 13:58:48;;;;;;;32.60;20.30;;;;;;;;;;136310;1290;22636;-81
2024/02/15 14:01:51;;;;;;;29.20;20.10;;;;;;;;;;136314;1290;22137;-81
2024/02/15 14:04:57;;;;;;;40.90;20.80;;;;;;;;;;136376;1290;22129;-81
2024/02/15 14:07:59;;;;;;;34.00;20.40;;;;;;;;;;136180;1282;22227;-82
2024/02/15 14:11:00;;;;;;;32.90;20.00;;;;;;;;;;136360;1290;22148;-80
2024/02/15 14:14:02;;;;;;;28.20;19.40;;;;;;;;;;136390;1290;22133;-81
2024/02/15 14:17:03;;;;;;;35.50;19.70;;;;;;;;;;136325;1290;22149;-81
2024/02/15 14:20:08;;;;;;;376.70;35.70;;;;;;;;;;136299;1290;22149;-78
2024/02/15 14:23:13;;;;;;;35.80;18.40;;;;;;;;;;136260;1290;22160;-81
2024/02/15 14:26:15;;;;;;;27.30;18.80;;;;;;;;;;136278;1290;22220;-81
2024/02/15 14:29:20;;;;;;;32.30;17.70;;;;;;;;;;136296;1290;22640;-81
2024/02/15 14:35:43;;;;;;;32.30;16.70;;;;;;;;;;136028;1288;22233;-82
2024/02/15 14:38:44;;;;;;;25.70;16.50;;;;;;;;;;136288;1290;22118;-81
2024/02/15 14:41:45;;;;;;;821.40;58.50;;;;;;;;;;136369;1290;22168;-81
2024/02/15 14:44:47;;;;;;;112.30;21.60;;;;;;;;;;136345;1290;22133;-80
2024/02/15 14:47:48;;;;;;;82.10;20.20;;;;;;;;;;136352;1290;22531;-81
2024/02/15 14:50:50;;;;;;;36.40;17.80;;;;;;;;;;136399;1290;22191;-82
2024/02/15 14:53:51;;;;;;;30.90;18.70;;;;;;;;;;136336;1290;22589;-82
2024/02/15 14:56:54;;;;;;;25.50;17.50;;;;;;;;;;136275;1290;22599;-81
2024/02/15 14:59:55;;;;;;;29.60;17.50;;;;;;;;;;136320;1290;22462;-81
2024/02/15 15:02:57;;;;;;;33.90;20.60;;;;;;;;;;136307;1290;22107;-81
2024/02/15 15:12:39;;;;;;;24.20;17.10;;;;;;;;;;136408;1290;22617;-81
2024/02/15 15:15:40;;;;;;;32.60;17.50;;;;;;;;;;136408;1286;22156;-80
2024/02/15 15:18:42;;;;;;;136.70;22.30;;;;;;;;;;136363;1290;22123;-81
2024/02/15 15:21:43;;;;;;;25.70;16.70;;;;;;;;;;136435;1290;22166;-80
2024/02/15 15:24:44;;;;;;;26.80;17.30;;;;;;;;;;136430;1290;22149;-80
2024/02/15 15:27:45;;;;;;;29.20;17.00;;;;;;;;;;136441;1290;22476;-80
2024/02/15 15:30:49;;;;;;;25.60;17.40;;;;;;;;;;136453;1290;22152;-81
2024/02/15 15:33:50;;;;;;;28.50;16.90;;;;;;;;;;136426;1285;22577;-81
2024/02/15 15:36:54;;;;;;;46.90;19.00;;;;;;;;;;136450;1290;22172;-81
2024/02/15 15:39:56;;;;;;;30.80;18.60;;;;;;;;;;136391;1290;22111;-81
2024/02/15 15:42:57;;;;;;;29.50;17.60;;;;;;;;;;136365;1290;22504;-83
2024/02/15 15:45:58;;;;;;;34.10;18.90;;;;;;;;;;136374;1290;22180;-81
2024/02/15 15:49:00;;;;;;;33.10;18.00;;;;;;;;;;136373;1290;22674;-81
2024/02/15 15:52:01;;;;;;;49.50;18.60;;;;;;;;;;136262;1290;22126;-80
2024/02/15 15:55:02;;;;;;;27.30;18.40;;;;;;;;;;136399;1290;22156;-80
2024/02/15 15:58:05;;;;;;;56.80;19.00;;;;;;;;;;136410;1290;22087;-81
2024/02/15 16:01:06;;;;;;;35.10;20.10;;;;;;;;;;136413;1290;22137;-80
2024/02/15 16:04:07;;;;;;;43.10;19.90;;;;;;;;;;136434;1290;22141;-80
2024/02/15 16:07:08;;;;;;;32.00;19.40;;;;;;;;;;136425;1290;22085;-80
2024/02/15 16:10:11;;;;;;;38.10;20.20;;;;;;;;;;136429;1290;22618;-80
2024/02/15 16:13:12;;;;;;;29.90;20.10;;;;;;;;;;136407;1290;22127;-80
2024/02/15 16:16:14;;;;;;;54.00;21.60;;;;;;;;;;136419;1290;22124;-81
2024/02/15 16:19:15;;;;;;;39.20;21.10;;;;;;;;;;136396;1290;22612;-80
2024/02/15 16:22:16;;;;;;;64.40;22.50;;;;;;;;;;136333;1290;22152;-80
2024/02/15 16:25:18;;;;;;;61.80;24.00;;;;;;;;;;136445;1290;22129;-81
2024/02/15 16:28:19;;;;;;;42.40;23.50;;;;;;;;;;136384;1289;22125;-79
2024/02/15 16:31:20;;;;;;;43.90;22.80;;;;;;;;;;136406;1290;22158;-81
2024/02/15 16:34:22;;;;;;;101.90;25.70;;;;;;;;;;136389;1290;22218;-81
2024/02/15 16:37:24;;;;;;;50.40;22.90;;;;;;;;;;136419;1290;22143;-81
2024/02/15 16:40:27;;;;;;;147.60;65.10;;;;;;;;;;136401;1290;22636;-81
2024/02/15 16:43:31;;;;;;;63.90;23.50;;;;;;;;;;136422;1290;22250;-81
2024/02/15 16:46:33;;;;;;;75.70;24.10;;;;;;;;;;136425;1290;22176;-81
2024/02/15 16:49:34;;;;;;;142.50;26.50;;;;;;;;;;136409;1290;22808;-83
2024/02/15 16:52:36;;;;;;;35.90;22.30;;;;;;;;;;136434;1290;22111;-82
2024/02/15 16:55:37;;;;;;;39.90;22.30;;;;;;;;;;136406;1290;22175;-81
2024/02/15 16:58:38;;;;;;;280.60;35.40;;;;;;;;;;136460;1290;22623;-82
2024/02/15 17:01:39;;;;;;;39.20;22.80;;;;;;;;;;136440;1290;22726;-81
2024/02/15 17:04:41;;;;;;;40.10;23.30;;;;;;;;;;136472;1290;22101;-82
2024/02/15 17:07:43;;;;;;;39.70;22.90;;;;;;;;;;136454;1286;22146;-81
2024/02/15 17:10:44;;;;;;;69.10;24.60;;;;;;;;;;136432;1290;22118;-82
2024/02/15 17:13:48;;;;;;;47.20;24.90;;;;;;;;;;136453;1290;22214;-81
2024/02/15 17:16:49;;;;;;;41.90;25.10;;;;;;;;;;136392;1290;22110;-81
2024/02/15 17:19:51;;;;;;;47.50;25.00;;;;;;;;;;136375;1290;22466;-81
2024/02/15 17:22:52;;;;;;;39.30;25.20;;;;;;;;;;136372;1290;22054;-81
2024/02/15 17:25:53;;;;;;;39.00;24.30;;;;;;;;;;136344;1290;22179;-80
2024/02/15 17:28:58;;;;;;;42.50;23.10;;;;;;;;;;136363;1290;22163;-82
2024/02/15 17:31:59;;;;;;;55.60;24.80;;;;;;;;;;136427;1290;22211;-83
2024/02/15 17:35:00;;;;;;;43.10;24.30;;;;;;;;;;136403;1290;22696;-82
2024/02/15 17:38:02;;;;;;;152.00;27.80;;;;;;;;;;136421;1290;22151;-80
2024/02/15 17:41:04;;;;;;;86.20;25.30;;;;;;;;;;136449;1290;22067;-80
2024/02/15 17:44:07;;;;;;;130.30;26.90;;;;;;;;;;136455;1290;22143;-82
2024/02/15 17:47:08;;;;;;;41.70;25.00;;;;;;;;;;136457;1290;22104;-82
2024/02/15 17:50:10;;;;;;;41.70;25.00;;;;;;;;;;136447;1290;22159;-82
2024/02/15 17:53:11;;;;;;;39.20;23.20;;;;;;;;;;136424;1290;22602;-82
2024/02/15 17:56:14;;;;;;;50.50;24.40;;;;;;;;;;136355;1290;22609;-82
2024/02/15 17:59:15;;;;;;;45.30;27.30;;;;;;;;;;136352;1290;22353;-82